createdAt,value
2023-11-19T00:02:19.044Z,6.00
2023-11-19T00:04:47.324Z,8.80
2023-11-19T00:07:15.706Z,6.70
2023-11-19T00:09:43.927Z,8.20
2023-11-19T00:12:12.090Z,6.50
2023-11-19T00:14:40.453Z,6.40
2023-11-19T00:17:09.903Z,6.30
2023-11-19T00:19:38.074Z,6.50
2023-11-19T00:22:06.887Z,5.30
2023-11-19T00:24:35.207Z,5.80
2023-11-19T00:27:03.621Z,7.20
2023-11-19T00:29:31.869Z,5.90
2023-11-19T00:32:00.113Z,5.80
2023-11-19T00:34:28.420Z,7.60
2023-11-19T00:36:57.244Z,5.60
2023-11-19T00:39:25.425Z,5.80
2023-11-19T00:41:53.654Z,5.40
2023-11-19T00:44:22.109Z,6.00
2023-11-19T00:46:50.950Z,5.70
2023-11-19T00:49:19.198Z,5.80
2023-11-19T00:51:47.688Z,6.50
2023-11-19T00:54:15.804Z,6.50
2023-11-19T00:56:44.518Z,6.10
2023-11-19T00:59:12.870Z,6.00
2023-11-19T01:03:41.975Z,6.40
2023-11-19T01:06:10.537Z,7.30
2023-11-19T01:08:39.005Z,6.80
2023-11-19T01:11:07.682Z,7.00
2023-11-19T01:13:35.884Z,8.40
2023-11-19T01:16:04.374Z,5.20
2023-11-19T01:18:32.816Z,6.50
2023-11-19T01:21:01.046Z,6.40
2023-11-19T01:23:29.176Z,6.20
2023-11-19T01:25:57.885Z,5.20
2023-11-19T01:28:26.110Z,4.90
2023-11-19T01:30:55.395Z,6.10
2023-11-19T01:33:23.938Z,7.20
2023-11-19T01:35:52.170Z,8.20
2023-11-19T01:38:20.492Z,7.40
2023-11-19T01:40:48.741Z,5.70
2023-11-19T01:43:36.791Z,6.60
2023-11-19T01:46:07.833Z,5.00
2023-11-19T01:48:36.397Z,5.40
2023-11-19T01:51:05.590Z,5.90
2023-11-19T01:53:35.382Z,8.10
2023-11-19T01:56:05.144Z,5.30
2023-11-19T01:58:33.524Z,6.30
2023-11-19T02:01:01.975Z,6.30
2023-11-19T02:03:32.693Z,6.30
2023-11-19T02:06:02.035Z,5.20
2023-11-19T02:08:31.452Z,5.60
2023-11-19T02:10:59.652Z,6.00
2023-11-19T02:13:28.687Z,5.10
2023-11-19T02:15:57.098Z,5.00
2023-11-19T02:18:29.349Z,6.30
2023-11-19T02:21:01.339Z,5.90
2023-11-19T02:23:30.001Z,6.00
2023-11-19T02:26:23.872Z,5.20
2023-11-19T02:28:52.169Z,5.90
2023-11-19T02:31:20.616Z,5.60
2023-11-19T02:33:49.009Z,5.30
2023-11-19T02:36:17.380Z,4.90
2023-11-19T02:38:45.538Z,4.90
2023-11-19T02:41:15.562Z,5.10
2023-11-19T02:43:43.828Z,4.90
2023-11-19T02:48:43.185Z,11.30
2023-11-19T02:51:11.789Z,5.20
2023-11-19T02:53:40.212Z,6.80
2023-11-19T02:56:09.088Z,6.00
2023-11-19T02:58:37.418Z,5.40
2023-11-19T03:01:05.957Z,5.50
2023-11-19T03:03:34.639Z,5.60
2023-11-19T03:06:02.984Z,6.30
2023-11-19T03:08:31.201Z,5.60
2023-11-19T03:10:59.466Z,6.40
2023-11-19T03:13:27.796Z,6.20
2023-11-19T03:15:56.003Z,4.90
2023-11-19T03:18:24.859Z,7.00
2023-11-19T03:20:53.291Z,5.00
2023-11-19T03:23:21.475Z,5.30
2023-11-19T03:25:49.744Z,5.20
2023-11-19T03:28:17.991Z,7.50
2023-11-19T03:30:47.018Z,5.50
2023-11-19T03:33:15.890Z,6.30
2023-11-19T03:35:44.186Z,5.80
2023-11-19T03:38:12.268Z,5.40
2023-11-19T03:40:40.433Z,7.20
2023-11-19T03:43:08.746Z,6.30
2023-11-19T03:45:36.863Z,8.60
2023-11-19T03:48:05.585Z,5.90
2023-11-19T03:50:33.849Z,6.50
2023-11-19T03:53:04.064Z,5.60
2023-11-19T03:55:32.691Z,6.30
2023-11-19T03:58:01.697Z,5.80
2023-11-19T04:00:29.908Z,6.40
2023-11-19T04:02:58.290Z,6.50
2023-11-19T04:05:27.760Z,6.50
2023-11-19T04:07:55.949Z,6.30
2023-11-19T04:10:24.730Z,6.40
2023-11-19T04:12:53.041Z,6.50
2023-11-19T04:15:21.228Z,6.10
2023-11-19T04:17:49.805Z,6.00
2023-11-19T04:20:18.806Z,6.40
2023-11-19T04:22:47.000Z,5.80
2023-11-19T04:25:15.412Z,6.30
2023-11-19T04:27:43.717Z,6.10
2023-11-19T04:30:12.666Z,5.90
2023-11-19T04:32:41.417Z,5.90
2023-11-19T04:35:10.327Z,5.60
2023-11-19T04:37:38.738Z,5.30
2023-11-19T04:40:07.858Z,4.90
2023-11-19T04:42:36.419Z,4.80
2023-11-19T04:45:04.959Z,6.00
2023-11-19T04:47:33.384Z,4.40
2023-11-19T04:50:01.777Z,4.60
2023-11-19T04:52:30.023Z,4.90
2023-11-19T04:54:58.283Z,5.40
2023-11-19T04:57:26.322Z,5.30
2023-11-19T04:59:54.459Z,4.70
2023-11-19T05:02:22.787Z,5.10
2023-11-19T05:04:52.012Z,4.80
2023-11-19T05:07:20.944Z,4.60
2023-11-19T05:09:49.382Z,4.60
2023-11-19T05:12:17.706Z,5.90
2023-11-19T05:14:45.903Z,6.40
2023-11-19T05:17:14.304Z,6.70
2023-11-19T05:19:42.640Z,7.30
2023-11-19T05:22:10.800Z,5.90
2023-11-19T05:24:39.162Z,6.50
2023-11-19T05:27:07.575Z,5.60
2023-11-19T05:29:36.084Z,5.90
2023-11-19T05:32:04.696Z,5.90
2023-11-19T05:34:33.000Z,5.70
2023-11-19T05:37:01.400Z,5.30
2023-11-19T05:39:30.152Z,6.30
2023-11-19T05:41:58.532Z,5.70
2023-11-19T05:44:26.900Z,6.70
2023-11-19T05:46:55.187Z,8.50
2023-11-19T05:49:23.585Z,7.80
2023-11-19T05:51:51.810Z,8.30
2023-11-19T05:54:20.348Z,7.60
2023-11-19T05:56:49.641Z,7.10
2023-11-19T05:59:17.732Z,7.50
2023-11-19T06:01:46.088Z,6.90
2023-11-19T06:04:16.622Z,7.30
2023-11-19T06:06:45.020Z,7.20
2023-11-19T06:09:13.887Z,6.50
2023-11-19T06:11:42.593Z,6.30
2023-11-19T06:14:10.881Z,5.40
2023-11-19T06:16:39.667Z,6.10
2023-11-19T06:19:07.889Z,8.10
2023-11-19T06:21:36.042Z,5.30
2023-11-19T06:24:04.661Z,5.50
2023-11-19T06:26:33.615Z,5.70
2023-11-19T06:29:02.227Z,4.30
2023-11-19T06:31:31.048Z,5.90
2023-11-19T06:33:59.244Z,4.00
2023-11-19T06:36:27.912Z,4.20
2023-11-19T06:38:56.424Z,3.50
2023-11-19T06:41:24.570Z,3.20
2023-11-19T06:43:53.375Z,3.50
2023-11-19T06:46:22.059Z,3.40
2023-11-19T06:48:50.633Z,3.30
2023-11-19T06:51:18.861Z,3.20
2023-11-19T06:53:47.253Z,3.10
2023-11-19T06:56:23.041Z,3.70
2023-11-19T06:58:52.626Z,3.40
2023-11-19T07:01:21.609Z,3.40
2023-11-19T07:03:50.531Z,4.50
2023-11-19T07:06:19.310Z,3.00
2023-11-19T07:08:47.656Z,2.70
2023-11-19T07:11:15.937Z,3.60
2023-11-19T07:13:44.407Z,3.30
2023-11-19T07:16:15.190Z,3.10
2023-11-19T07:18:43.532Z,3.10
2023-11-19T07:21:12.353Z,2.60
2023-11-19T07:23:40.710Z,3.00
2023-11-19T07:26:09.102Z,3.50
2023-11-19T07:28:37.540Z,4.00
2023-11-19T07:31:05.964Z,8.70
2023-11-19T07:33:34.276Z,9.60
2023-11-19T07:36:02.881Z,10.60
2023-11-19T07:38:31.091Z,10.80
2023-11-19T07:40:59.446Z,13.70
2023-11-19T07:43:28.282Z,21.70
2023-11-19T07:45:56.471Z,27.30
2023-11-19T07:48:24.853Z,43.80
2023-11-19T07:50:54.073Z,28.80
2023-11-19T07:53:22.323Z,31.10
2023-11-19T07:55:50.565Z,22.90
2023-11-19T07:58:18.821Z,21.90
2023-11-19T08:00:47.070Z,19.00
2023-11-19T08:03:15.594Z,21.70
2023-11-19T08:05:44.582Z,16.30
2023-11-19T08:08:13.469Z,12.50
2023-11-19T08:10:42.460Z,12.70
2023-11-19T08:13:10.986Z,9.90
2023-11-19T08:15:39.460Z,8.00
2023-11-19T08:18:08.029Z,8.20
2023-11-19T08:20:36.308Z,7.10
2023-11-19T08:23:04.996Z,6.90
2023-11-19T08:25:33.393Z,6.70
2023-11-19T08:28:01.773Z,6.10
2023-11-19T08:30:30.325Z,7.70
2023-11-19T08:32:58.670Z,6.70
2023-11-19T08:35:27.717Z,6.80
2023-11-19T08:37:56.051Z,6.20
2023-11-19T08:40:24.339Z,6.80
2023-11-19T08:42:53.310Z,6.90
2023-11-19T08:45:21.818Z,6.70
2023-11-19T08:47:50.143Z,5.60
2023-11-19T08:50:19.950Z,6.40
2023-11-19T08:52:48.535Z,5.70
2023-11-19T08:55:16.876Z,7.70
2023-11-19T08:57:45.180Z,7.70
2023-11-19T09:00:13.630Z,5.90
2023-11-19T09:02:41.977Z,7.50
2023-11-19T09:05:10.632Z,6.70
2023-11-19T09:07:39.025Z,5.70
2023-11-19T09:10:07.772Z,5.80
2023-11-19T09:12:36.485Z,4.80
2023-11-19T09:15:05.054Z,5.90
2023-11-19T09:17:33.409Z,6.90
2023-11-19T09:20:02.081Z,3.80
2023-11-19T09:22:30.487Z,4.40
2023-11-19T09:24:58.751Z,3.80
2023-11-19T09:27:27.146Z,4.10
2023-11-19T09:29:56.156Z,4.10
2023-11-19T09:32:24.840Z,5.90
2023-11-19T09:34:53.508Z,5.00
2023-11-19T09:37:22.350Z,4.20
2023-11-19T09:39:51.503Z,4.20
2023-11-19T09:42:20.678Z,3.90
2023-11-19T09:44:50.528Z,5.60
2023-11-19T09:47:21.145Z,5.50
2023-11-19T09:49:51.373Z,5.00
2023-11-19T09:52:19.643Z,4.70
2023-11-19T09:54:48.291Z,5.40
2023-11-19T09:57:18.166Z,4.80
2023-11-19T09:59:47.626Z,6.30
2023-11-19T10:02:16.756Z,5.80
2023-11-19T10:04:47.750Z,5.30
2023-11-19T10:07:16.184Z,5.10
2023-11-19T10:09:44.459Z,6.80
2023-11-19T10:12:12.686Z,5.60
2023-11-19T10:14:42.776Z,8.60
2023-11-19T10:17:11.015Z,5.60
2023-11-19T10:19:41.429Z,6.70
2023-11-19T10:22:09.920Z,8.60
2023-11-19T10:24:40.024Z,14.80
2023-11-19T10:27:10.446Z,7.80
2023-11-19T10:29:38.936Z,6.50
2023-11-19T10:32:24.570Z,6.30
2023-11-19T10:35:08.041Z,5.10
2023-11-19T10:37:36.151Z,5.30
2023-11-19T10:40:04.932Z,6.10
2023-11-19T10:42:33.195Z,5.30
2023-11-19T10:45:01.964Z,7.20
2023-11-19T10:50:02.935Z,6.30
2023-11-19T10:52:34.988Z,4.70
2023-11-19T10:55:08.324Z,7.80
2023-11-19T10:57:38.242Z,7.00
2023-11-19T11:00:07.967Z,5.00
2023-11-19T11:02:42.057Z,7.50
2023-11-19T11:05:12.967Z,5.70
2023-11-19T11:07:42.036Z,6.00
2023-11-19T11:10:13.392Z,4.20
2023-11-19T11:12:43.314Z,5.60
2023-11-19T11:15:15.770Z,7.00
2023-11-19T11:17:46.947Z,8.60
2023-11-19T11:20:15.716Z,6.90
2023-11-19T11:23:22.318Z,3.80
2023-11-19T11:26:16.482Z,3.30
2023-11-19T11:28:57.850Z,6.70
2023-11-19T11:31:41.706Z,5.30
2023-11-19T11:34:24.799Z,7.90
2023-11-19T11:37:17.479Z,5.80
2023-11-19T11:39:47.911Z,5.00
2023-11-19T11:42:19.292Z,8.30
2023-11-19T11:45:07.359Z,5.30
2023-11-19T11:47:44.931Z,8.00
2023-11-19T11:50:20.674Z,6.80
2023-11-19T11:52:58.245Z,7.50
2023-11-19T11:55:35.217Z,6.70
2023-11-19T11:58:04.966Z,6.80
2023-11-19T12:00:42.602Z,8.10
2023-11-19T12:03:12.975Z,6.80
2023-11-19T12:05:47.880Z,8.20
2023-11-19T12:08:20.846Z,6.40
2023-11-19T12:10:56.944Z,7.00
